createdAt,value
2022-08-21T10:46:08.287Z,66.17
2022-08-21T10:47:08.246Z,66.27
2022-08-21T10:48:08.290Z,65.97
2022-08-21T10:49:08.330Z,65.34
2022-08-21T10:50:08.395Z,65.24
2022-08-21T10:51:08.421Z,64.34
2022-08-21T10:52:08.533Z,64.54
2022-08-21T10:53:08.551Z,64.54
2022-08-21T10:54:08.595Z,64.64
2022-08-21T10:55:08.638Z,65.24
2022-08-21T10:56:08.670Z,64.84
2022-08-21T10:57:08.739Z,65.84
2022-08-21T10:58:08.751Z,64.75
2022-08-21T10:59:08.779Z,64.75
2022-08-21T11:00:08.811Z,63.05
2022-08-21T11:01:08.953Z,60.26
2022-08-21T11:02:08.936Z,63.05
2022-08-21T11:03:08.933Z,64.34
2022-08-21T11:04:08.968Z,64.64
2022-08-21T11:05:09.009Z,65.17
2022-08-21T11:06:09.071Z,65.74
2022-08-21T11:07:17.112Z,64.75
2022-08-21T11:08:09.204Z,64.64
2022-08-21T11:09:09.242Z,65.27
2022-08-21T11:10:09.305Z,64.64
2022-08-21T11:11:09.375Z,63.98
2022-08-21T11:12:11.605Z,64.58
2022-08-21T11:13:09.503Z,64.28
2022-08-21T11:14:09.509Z,63.88
2022-08-21T11:15:14.920Z,63.68
2022-08-21T11:16:09.577Z,63.58
2022-08-21T11:17:09.631Z,63.08
2022-08-21T11:18:09.717Z,63.38
2022-08-21T11:19:09.700Z,64.31
2022-08-21T11:20:09.740Z,64.78
2022-08-21T11:21:09.792Z,64.67
2022-08-21T11:22:09.813Z,65.17
2022-08-21T11:23:10.342Z,66.07
2022-08-21T11:24:09.908Z,65.67
2022-08-21T11:25:09.946Z,65.77
2022-08-21T11:26:10.027Z,65.87
2022-08-21T11:27:10.049Z,66.53
2022-08-21T11:28:14.202Z,65.64
2022-08-21T11:29:10.182Z,64.04
2022-08-21T11:30:10.262Z,65.74
2022-08-21T11:31:10.262Z,65.74
2022-08-21T11:32:10.299Z,65.54
2022-08-21T11:33:10.343Z,65.54
2022-08-21T11:34:10.413Z,62.75
2022-08-21T11:35:10.441Z,62.72
2022-08-21T11:36:10.476Z,63.62
2022-08-21T11:37:10.547Z,63.62
2022-08-21T11:38:10.563Z,62.82
2022-08-21T11:39:10.628Z,63.82
2022-08-21T11:40:10.887Z,63.35
2022-08-21T11:41:10.702Z,64.01
2022-08-21T11:42:10.783Z,64.91
2022-08-21T11:43:10.783Z,64.31
2022-08-21T11:44:10.833Z,64.64
2022-08-21T11:45:10.882Z,64.22
2022-08-21T11:46:10.937Z,63.72
2022-08-21T11:47:11.005Z,63.92
2022-08-21T11:48:11.014Z,63.92
2022-08-21T11:49:11.042Z,64.61
2022-08-21T11:50:11.085Z,64.22
2022-08-21T11:51:11.117Z,62.23
2022-08-21T11:52:11.252Z,63.92
2022-08-21T11:53:11.223Z,63.32
2022-08-21T11:54:11.270Z,62.23
2022-08-21T11:55:11.309Z,64.12
2022-08-21T11:56:11.350Z,64.48
2022-08-21T11:57:11.421Z,63.79
2022-08-21T11:58:11.428Z,64.18
2022-08-21T11:59:11.502Z,61.80
2022-08-21T12:00:11.510Z,62.29
2022-08-21T12:01:11.559Z,62.37
2022-08-21T12:02:11.691Z,61.77
2022-08-21T12:03:11.642Z,60.38
2022-08-21T12:04:11.698Z,61.20
2022-08-21T12:05:11.704Z,62.19
2022-08-21T12:06:11.790Z,61.69
2022-08-21T12:07:11.812Z,62.99
2022-08-21T12:08:11.858Z,62.19
2022-08-21T12:09:11.880Z,62.89
2022-08-21T12:10:11.931Z,62.49
2022-08-21T12:11:11.928Z,62.69
2022-08-21T12:12:11.959Z,62.40
2022-08-21T12:13:11.975Z,62.99
2022-08-21T12:14:11.994Z,62.56
2022-08-21T12:15:12.044Z,62.49
2022-08-21T12:16:12.067Z,61.80
2022-08-21T12:17:12.337Z,62.10
2022-08-21T12:18:12.159Z,62.59
2022-08-21T12:19:12.191Z,62.59
2022-08-21T12:20:12.262Z,62.59
2022-08-21T12:21:12.316Z,63.79
2022-08-21T12:22:12.335Z,63.89
2022-08-21T12:23:13.230Z,63.79
2022-08-21T12:24:12.428Z,62.79
2022-08-21T12:25:12.479Z,61.99
2022-08-21T12:26:12.581Z,61.99
2022-08-21T12:27:12.571Z,60.40
2022-08-21T12:28:12.634Z,60.17
2022-08-21T12:29:12.681Z,60.27
2022-08-21T12:30:12.744Z,59.78
2022-08-21T12:31:12.824Z,59.81
2022-08-21T12:32:12.858Z,60.30
2022-08-21T12:33:12.864Z,59.61
2022-08-21T12:34:12.899Z,59.41
2022-08-21T12:35:15.504Z,59.21
2022-08-21T12:36:12.964Z,59.51
2022-08-21T12:37:13.058Z,60.00
2022-08-21T12:38:13.036Z,59.91
2022-08-21T12:39:13.068Z,61.80
2022-08-21T12:40:13.191Z,61.80
2022-08-21T12:41:14.083Z,61.72
2022-08-21T12:42:13.349Z,62.52
2022-08-21T12:43:13.249Z,61.93
2022-08-21T12:44:13.291Z,61.63
2022-08-21T12:45:13.332Z,60.93
2022-08-21T12:46:13.374Z,60.24
2022-08-21T12:47:13.499Z,60.33
2022-08-21T12:48:13.519Z,61.83
2022-08-21T12:49:13.580Z,61.72
2022-08-21T12:50:13.640Z,61.72
2022-08-21T12:51:13.678Z,62.32
2022-08-21T12:52:13.745Z,62.72
2022-08-21T12:53:20.425Z,63.02
2022-08-21T12:54:13.838Z,62.32
2022-08-21T12:55:13.956Z,62.85
2022-08-21T12:56:13.969Z,60.83
2022-08-21T12:57:14.028Z,61.43
2022-08-21T12:58:14.085Z,61.93
2022-08-21T12:59:14.126Z,59.14
2022-08-21T13:00:14.238Z,60.43
2022-08-21T13:01:14.312Z,59.74
2022-08-21T13:02:14.343Z,60.53
2022-08-21T13:03:14.309Z,61.20
2022-08-21T13:04:14.352Z,61.99
2022-08-21T13:05:14.420Z,61.80
2022-08-21T13:06:14.515Z,62.59
2022-08-21T13:07:14.478Z,62.29
2022-08-21T13:08:14.546Z,61.99
2022-08-21T13:09:14.563Z,61.50
2022-08-21T13:10:14.606Z,60.50
2022-08-21T13:11:15.389Z,59.41
2022-08-21T13:12:14.700Z,59.91
2022-08-21T13:13:14.883Z,59.91
2022-08-21T13:14:14.786Z,61.60
2022-08-21T13:15:14.833Z,61.63
2022-08-21T13:16:14.877Z,61.03
2022-08-21T13:17:23.245Z,60.43
2022-08-21T13:18:14.992Z,59.53
2022-08-21T13:19:14.999Z,60.13
2022-08-21T13:20:15.078Z,59.17
2022-08-21T13:21:15.131Z,59.44
2022-08-21T13:22:34.100Z,59.47
2022-08-21T13:23:15.286Z,59.53
2022-08-21T13:24:40.717Z,58.74
2022-08-21T13:25:15.362Z,58.04
2022-08-21T13:26:18.524Z,58.34
2022-08-21T13:27:15.471Z,58.97
2022-08-21T13:28:15.603Z,59.27
2022-08-21T13:29:15.542Z,58.34
2022-08-21T13:30:15.583Z,59.64
2022-08-21T13:31:15.638Z,59.94
2022-08-21T13:32:15.680Z,60.43
2022-08-21T13:33:15.751Z,59.64
2022-08-21T13:34:15.792Z,60.33
2022-08-21T13:35:15.812Z,59.83
2022-08-21T13:36:15.864Z,59.14
2022-08-21T13:37:15.916Z,59.94
2022-08-21T13:38:15.965Z,59.94
2022-08-21T13:39:16.049Z,58.24
2022-08-21T13:40:16.154Z,58.14
2022-08-21T13:41:16.096Z,56.65
2022-08-21T13:42:16.148Z,57.75
2022-08-21T13:43:19.924Z,59.44
2022-08-21T13:44:20.512Z,59.64
2022-08-21T13:45:16.233Z,59.23
2022-08-21T13:46:16.269Z,60.24
2022-08-21T13:47:16.315Z,59.53
2022-08-21T13:48:16.348Z,59.23
2022-08-21T13:49:16.410Z,60.46
2022-08-21T13:50:16.436Z,59.77
2022-08-21T13:51:16.469Z,59.83
2022-08-21T13:52:16.481Z,59.74
2022-08-21T13:53:16.508Z,59.83
2022-08-21T13:54:16.561Z,59.94
2022-08-21T13:55:16.602Z,59.06
2022-08-21T13:56:16.625Z,57.87
2022-08-21T13:57:16.678Z,58.67
2022-08-21T13:58:16.749Z,59.34
2022-08-21T13:59:16.852Z,59.06
2022-08-21T14:00:16.881Z,59.27
2022-08-21T14:01:17.013Z,61.16
2022-08-21T14:02:16.998Z,59.66
2022-08-21T14:03:17.045Z,58.57
2022-08-21T14:04:17.113Z,59.77
2022-08-21T14:05:17.135Z,59.56
2022-08-21T14:06:17.183Z,58.67
2022-08-21T14:07:17.261Z,57.17
2022-08-21T14:08:17.317Z,59.06
2022-08-21T14:09:17.336Z,58.27
2022-08-21T14:10:17.388Z,58.14
2022-08-21T14:11:17.439Z,59.17
2022-08-21T14:12:23.595Z,59.14
2022-08-21T14:13:17.571Z,58.94
2022-08-21T14:14:17.586Z,56.75
2022-08-21T14:15:17.609Z,58.04
2022-08-21T14:16:17.651Z,58.17
2022-08-21T14:17:25.008Z,58.44
2022-08-21T14:18:17.747Z,58.24
2022-08-21T14:19:17.736Z,58.74
2022-08-21T14:20:17.755Z,58.34
2022-08-21T14:21:17.770Z,58.34
2022-08-21T14:22:17.815Z,57.64
2022-08-21T14:23:17.848Z,57.35
2022-08-21T14:24:19.399Z,58.47
2022-08-21T14:25:17.880Z,59.36
2022-08-21T14:26:17.922Z,58.97
2022-08-21T14:27:17.950Z,59.47
2022-08-21T14:28:19.691Z,59.17
2022-08-21T14:29:18.063Z,58.67
2022-08-21T14:30:18.042Z,59.27
2022-08-21T14:31:18.077Z,58.17
2022-08-21T14:32:24.509Z,56.87
2022-08-21T14:33:18.155Z,57.67
2022-08-21T14:34:19.755Z,57.67
2022-08-21T14:35:18.265Z,58.17
2022-08-21T14:36:18.272Z,58.87
2022-08-21T14:37:18.334Z,59.47
2022-08-21T14:38:18.381Z,58.97
2022-08-21T14:39:18.451Z,57.97
2022-08-21T14:40:18.629Z,59.06
2022-08-21T14:41:18.583Z,59.17
2022-08-21T14:42:18.646Z,59.77
2022-08-21T14:43:18.683Z,60.36
2022-08-21T14:44:18.744Z,60.06
2022-08-21T14:45:23.809Z,61.13
2022-08-21T14:46:18.866Z,61.33
2022-08-21T14:47:18.936Z,60.24
2022-08-21T14:48:19.024Z,61.23
2022-08-21T14:49:19.053Z,60.63
2022-08-21T14:50:19.087Z,61.13
2022-08-21T14:51:19.122Z,61.30
2022-08-21T14:52:19.154Z,60.40
2022-08-21T14:53:19.219Z,60.13
2022-08-21T14:54:19.261Z,59.21
2022-08-21T14:55:19.291Z,59.70
2022-08-21T14:56:19.326Z,59.61
2022-08-21T14:57:19.359Z,60.00
2022-08-21T14:58:19.397Z,58.31
2022-08-21T14:59:19.464Z,57.82
2022-08-21T15:00:19.503Z,59.31
2022-08-21T15:01:19.601Z,58.88
2022-08-21T15:02:19.527Z,58.11
2022-08-21T15:03:19.551Z,58.61
2022-08-21T15:04:19.611Z,58.58
2022-08-21T15:05:24.159Z,59.68
2022-08-21T15:06:19.638Z,59.68
2022-08-21T15:07:19.680Z,58.48
2022-08-21T15:08:19.689Z,58.09
2022-08-21T15:09:19.709Z,58.48
2022-08-21T15:10:19.750Z,57.79
2022-08-21T15:11:42.779Z,58.18
2022-08-21T15:12:19.794Z,57.99
2022-08-21T15:13:19.840Z,58.09
2022-08-21T15:14:19.885Z,57.99
2022-08-21T15:15:19.957Z,56.79
2022-08-21T15:16:19.953Z,56.99
2022-08-21T15:17:20.002Z,56.99
2022-08-21T15:18:20.050Z,57.69
2022-08-21T15:19:20.104Z,58.09
2022-08-21T15:20:20.174Z,59.28
2022-08-21T15:21:20.180Z,58.78
2022-08-21T15:22:22.946Z,59.08
2022-08-21T15:23:20.256Z,58.58
2022-08-21T15:24:20.301Z,58.39
2022-08-21T15:25:20.317Z,58.98
2022-08-21T15:26:20.413Z,59.28
2022-08-21T15:27:20.317Z,58.78
2022-08-21T15:28:20.329Z,57.99
2022-08-21T15:29:22.832Z,58.01
2022-08-21T15:30:20.399Z,58.58
2022-08-21T15:31:20.492Z,58.28
2022-08-21T15:32:20.502Z,59.11
2022-08-21T15:33:20.550Z,58.09
2022-08-21T15:34:20.586Z,58.39
2022-08-21T15:35:20.635Z,58.48
2022-08-21T15:36:20.704Z,58.09
2022-08-21T15:37:20.690Z,58.09
2022-08-21T15:38:20.748Z,58.18
2022-08-21T15:39:20.814Z,59.08
2022-08-21T15:40:21.012Z,59.18
2022-08-21T15:41:20.938Z,58.78
2022-08-21T15:42:21.045Z,59.48
2022-08-21T15:43:21.060Z,61.27
2022-08-21T15:44:21.004Z,62.46
2022-08-21T15:45:21.038Z,62.46
2022-08-21T15:46:21.078Z,63.66
2022-08-21T15:47:21.275Z,63.76
2022-08-21T15:48:21.139Z,64.25
2022-08-21T15:49:21.184Z,65.05
2022-08-21T15:50:21.235Z,64.55
2022-08-21T15:51:21.272Z,64.65
2022-08-21T15:52:21.323Z,65.31
2022-08-21T15:53:21.417Z,65.84
2022-08-21T15:54:21.353Z,65.05
2022-08-21T15:55:21.386Z,64.95
2022-08-21T15:56:21.415Z,65.45
2022-08-21T15:57:21.448Z,65.75
2022-08-21T15:58:21.559Z,66.44
2022-08-21T15:59:21.506Z,66.35
2022-08-21T16:00:21.549Z,65.94
2022-08-21T16:01:21.669Z,65.84
2022-08-21T16:02:21.616Z,65.94
2022-08-21T16:03:21.681Z,66.54
2022-08-21T16:04:21.685Z,66.05
2022-08-21T16:05:21.726Z,66.08
2022-08-21T16:06:37.915Z,66.77
2022-08-21T16:07:21.806Z,66.87
2022-08-21T16:08:21.862Z,66.38
2022-08-21T16:09:21.870Z,66.57
2022-08-21T16:10:21.905Z,66.61
2022-08-21T16:11:21.938Z,66.27
2022-08-21T16:12:21.984Z,67.30
2022-08-21T16:13:22.060Z,67.30
2022-08-21T16:14:22.032Z,67.40
2022-08-21T16:15:22.079Z,67.20
2022-08-21T16:16:22.127Z,67.30
2022-08-21T16:17:22.167Z,66.94
2022-08-21T16:18:22.234Z,67.03
2022-08-21T16:19:22.218Z,67.43
2022-08-21T16:20:22.275Z,67.83
2022-08-21T16:21:22.283Z,67.63
2022-08-21T16:22:22.324Z,66.83
2022-08-21T16:23:22.365Z,67.63
2022-08-21T16:24:22.396Z,67.43
2022-08-21T16:25:22.458Z,68.23
2022-08-21T16:26:22.458Z,68.23
2022-08-21T16:27:22.531Z,67.83
2022-08-21T16:28:22.551Z,67.77
2022-08-21T16:29:22.588Z,67.77
2022-08-21T16:30:22.640Z,67.77
2022-08-21T16:31:22.698Z,67.96
2022-08-21T16:32:22.773Z,68.26
2022-08-21T16:33:22.787Z,68.40
2022-08-21T16:34:22.840Z,68.49
2022-08-21T16:35:22.889Z,68.60
2022-08-21T16:36:22.959Z,68.40
2022-08-21T16:37:24.420Z,68.79
2022-08-21T16:38:23.098Z,69.09
2022-08-21T16:39:23.161Z,68.73
2022-08-21T16:40:23.562Z,69.32
2022-08-21T16:41:23.309Z,69.32
2022-08-21T16:42:23.424Z,69.92
2022-08-21T16:43:23.455Z,70.03
2022-08-21T16:44:23.519Z,70.32
2022-08-21T16:45:23.640Z,70.92
2022-08-21T16:46:23.651Z,70.72
2022-08-21T16:47:27.135Z,70.72
2022-08-21T16:48:23.774Z,71.52
2022-08-21T16:49:23.826Z,71.42
2022-08-21T16:50:23.844Z,71.12
2022-08-21T16:51:23.890Z,71.32
2022-08-21T16:52:23.937Z,71.02
2022-08-21T16:53:24.005Z,71.12
2022-08-21T16:54:24.106Z,72.02
2022-08-21T16:55:24.166Z,71.92
2022-08-21T16:56:24.181Z,71.92
2022-08-21T16:57:24.233Z,72.12
2022-08-21T16:58:24.286Z,72.55
2022-08-21T16:59:24.367Z,71.82
2022-08-21T17:00:24.412Z,72.42
2022-08-21T17:01:24.508Z,72.52
2022-08-21T17:02:24.490Z,72.16
2022-08-21T17:03:24.570Z,72.25
2022-08-21T17:04:24.645Z,72.32
2022-08-21T17:05:24.684Z,72.55
2022-08-21T17:06:28.897Z,72.35
2022-08-21T17:07:24.816Z,72.16
2022-08-21T17:08:24.847Z,71.75
2022-08-21T17:09:24.894Z,71.95
2022-08-21T17:10:24.946Z,71.95
2022-08-21T17:11:36.672Z,72.16
2022-08-21T17:12:25.072Z,71.56
2022-08-21T17:13:25.152Z,71.15
2022-08-21T17:14:25.230Z,71.06
2022-08-21T17:15:25.296Z,69.86
2022-08-21T17:16:25.388Z,68.86
2022-08-21T17:17:25.433Z,68.66
2022-08-21T17:18:25.520Z,68.89
2022-08-21T17:19:25.609Z,68.70
2022-08-21T17:20:25.708Z,68.89
2022-08-21T17:21:25.731Z,68.99
2022-08-21T17:22:25.778Z,68.99
2022-08-21T17:23:25.834Z,68.70
2022-08-21T17:24:25.926Z,68.59
2022-08-21T17:25:25.953Z,68.89
2022-08-21T17:26:25.999Z,69.39
2022-08-21T17:27:26.851Z,69.39
2022-08-21T17:28:26.110Z,69.02
2022-08-21T17:29:26.288Z,69.02
2022-08-21T17:30:26.193Z,69.62
2022-08-21T17:31:26.245Z,69.73
2022-08-21T17:32:26.284Z,69.89
2022-08-21T17:33:26.327Z,69.82
2022-08-21T17:34:31.171Z,70.72
2022-08-21T17:35:26.444Z,70.72
2022-08-21T17:36:26.504Z,70.42
2022-08-21T17:37:29.333Z,70.32
2022-08-21T17:38:27.833Z,71.22
2022-08-21T17:39:26.894Z,70.62
2022-08-21T17:40:26.849Z,71.03
2022-08-21T17:41:26.849Z,71.52
2022-08-21T17:42:26.907Z,71.66
2022-08-21T17:43:26.964Z,71.56
2022-08-21T17:44:27.052Z,71.42
2022-08-21T17:45:27.086Z,71.92
2022-08-21T17:46:27.170Z,71.96
2022-08-21T17:47:27.235Z,72.06
2022-08-21T17:48:27.279Z,72.26
2022-08-21T17:49:27.358Z,72.45
2022-08-21T17:50:27.388Z,71.86
2022-08-21T17:51:27.446Z,72.56
2022-08-21T17:52:27.507Z,72.56
2022-08-21T17:53:27.564Z,72.66
2022-08-21T17:54:27.654Z,72.66
2022-08-21T17:55:27.679Z,72.76
2022-08-21T17:56:27.735Z,73.06
2022-08-21T17:57:27.793Z,72.76
2022-08-21T17:58:27.848Z,72.89
2022-08-21T17:59:27.928Z,73.19
2022-08-21T18:00:27.949Z,73.49
2022-08-21T18:01:28.100Z,73.59
2022-08-21T18:02:28.076Z,73.66
2022-08-21T18:03:28.165Z,74.49
2022-08-21T18:04:28.249Z,73.89
2022-08-21T18:05:28.359Z,75.09
2022-08-21T18:06:28.417Z,74.59
2022-08-21T18:07:32.682Z,74.39
2022-08-21T18:08:28.530Z,74.99
2022-08-21T18:09:28.588Z,74.69
2022-08-21T18:10:28.639Z,74.93
2022-08-21T18:11:28.701Z,75.33
2022-08-21T18:12:28.787Z,75.73
2022-08-21T18:13:28.821Z,75.52
2022-08-21T18:14:28.902Z,75.83
2022-08-21T18:15:28.933Z,75.63
2022-08-21T18:16:28.981Z,76.03
2022-08-21T18:17:29.058Z,75.63
2022-08-21T18:18:29.085Z,75.73
2022-08-21T18:19:29.133Z,76.23
2022-08-21T18:20:29.193Z,76.33
2022-08-21T18:21:29.280Z,76.33
2022-08-21T18:22:29.347Z,76.73
2022-08-21T18:23:43.490Z,77.36
2022-08-21T18:24:29.435Z,77.03
2022-08-21T18:25:29.492Z,77.23
2022-08-21T18:26:29.563Z,77.06
2022-08-21T18:27:29.926Z,77.56
2022-08-21T18:28:29.749Z,77.67
2022-08-21T18:29:29.776Z,77.76
2022-08-21T18:30:29.840Z,77.67
2022-08-21T18:31:29.900Z,77.67
2022-08-21T18:32:31.513Z,77.56
2022-08-21T18:33:30.063Z,76.76
2022-08-21T18:34:30.082Z,76.97
2022-08-21T18:35:30.153Z,77.36
2022-08-21T18:36:30.225Z,77.67
2022-08-21T18:37:30.276Z,77.67
2022-08-21T18:38:30.369Z,77.97
2022-08-21T18:39:38.131Z,77.86
2022-08-21T18:40:30.468Z,77.86
2022-08-21T18:41:30.669Z,78.17
2022-08-21T18:42:30.599Z,77.76
2022-08-21T18:43:30.654Z,77.47
2022-08-21T18:44:30.723Z,76.97
2022-08-21T18:45:30.789Z,76.97
2022-08-21T18:46:30.916Z,76.76
2022-08-21T18:47:30.938Z,76.90
2022-08-21T18:48:31.023Z,77.20
2022-08-21T18:49:31.113Z,77.40
2022-08-21T18:50:31.198Z,77.60
2022-08-21T18:51:31.455Z,77.80
2022-08-21T18:52:31.375Z,77.91
2022-08-21T18:53:31.470Z,77.80
2022-08-21T18:54:31.561Z,77.91
2022-08-21T18:55:31.637Z,77.60
2022-08-21T18:56:31.743Z,77.50
2022-08-21T18:57:31.775Z,77.80
2022-08-21T18:58:31.915Z,77.80
2022-08-21T18:59:31.896Z,78.10
2022-08-21T19:00:31.956Z,77.80
2022-08-21T19:01:31.999Z,77.91
2022-08-21T19:02:32.048Z,77.80
2022-08-21T19:03:32.134Z,77.91
2022-08-21T19:04:43.666Z,77.80
2022-08-21T19:05:32.199Z,77.40
2022-08-21T19:06:32.257Z,77.91
2022-08-21T19:07:32.340Z,78.20
2022-08-21T19:08:32.359Z,78.10
2022-08-21T19:09:32.401Z,77.74
2022-08-21T19:10:32.448Z,78.54
2022-08-21T19:11:32.535Z,78.74
2022-08-21T19:12:32.529Z,78.54
2022-08-21T19:13:32.573Z,78.14
2022-08-21T19:14:32.614Z,77.80
2022-08-21T19:15:32.672Z,77.84
2022-08-21T19:16:32.761Z,77.94
2022-08-21T19:17:32.801Z,78.04
2022-08-21T19:18:32.862Z,77.84
2022-08-21T19:19:32.944Z,78.14
2022-08-21T19:20:32.969Z,78.64
2022-08-21T19:21:33.021Z,78.54
2022-08-21T19:22:33.065Z,78.54
2022-08-21T19:23:34.948Z,78.54
2022-08-21T19:24:33.231Z,78.74
2022-08-21T19:25:34.477Z,78.54
2022-08-21T19:26:33.269Z,78.84
2022-08-21T19:27:33.316Z,78.64
2022-08-21T19:28:33.360Z,78.74
2022-08-21T19:30:33.508Z,78.04
2022-08-21T19:31:33.521Z,78.24
2022-08-21T19:32:33.596Z,78.04
2022-08-21T19:33:33.806Z,78.04
2022-08-21T19:34:33.732Z,78.24
2022-08-21T19:35:33.824Z,78.34
2022-08-21T19:36:33.886Z,78.14
2022-08-21T19:37:33.931Z,78.24
2022-08-21T19:38:34.028Z,78.64
2022-08-21T19:39:34.052Z,78.54
2022-08-21T19:40:34.187Z,78.64
2022-08-21T19:41:34.142Z,78.74
2022-08-21T19:42:34.185Z,78.24
2022-08-21T19:43:34.287Z,78.54
2022-08-21T19:44:34.296Z,78.84
2022-08-21T19:45:34.398Z,78.94
2022-08-21T19:46:35.079Z,78.84
2022-08-21T19:47:34.444Z,78.84
2022-08-21T19:48:34.498Z,78.98
2022-08-21T19:49:34.546Z,79.14
2022-08-21T19:50:34.642Z,79.88
2022-08-21T19:51:34.718Z,80.18
2022-08-21T19:52:35.762Z,80.24
2022-08-21T19:53:34.870Z,80.58
2022-08-21T19:54:35.046Z,80.48
2022-08-21T19:55:35.028Z,81.09
2022-08-21T19:56:35.075Z,80.08
2022-08-21T19:57:35.138Z,80.18
2022-08-21T19:58:35.191Z,80.38
2022-08-21T19:59:35.285Z,80.88
2022-08-21T20:00:35.372Z,80.79
2022-08-21T20:01:35.389Z,80.92
2022-08-21T20:02:35.636Z,80.48
2022-08-21T20:03:35.572Z,79.92
2022-08-21T20:04:35.675Z,80.68
2022-08-21T20:05:39.754Z,80.82
2022-08-21T20:06:35.861Z,80.22
2022-08-21T20:07:35.982Z,80.48
2022-08-21T20:08:36.050Z,80.42
2022-08-21T20:09:36.139Z,80.52
2022-08-21T20:10:36.232Z,80.32
2022-08-21T20:11:36.344Z,80.79
2022-08-21T20:12:36.393Z,80.42
2022-08-21T20:13:36.637Z,81.18
2022-08-21T20:14:36.553Z,80.22
2022-08-21T20:15:36.616Z,80.58
2022-08-21T20:16:36.688Z,81.32
2022-08-21T20:17:36.753Z,80.18
2022-08-21T20:18:36.842Z,80.18
2022-08-21T20:19:36.913Z,80.88
2022-08-21T20:20:36.965Z,80.88
2022-08-21T20:21:44.177Z,80.68
2022-08-21T20:22:37.114Z,80.38
2022-08-21T20:23:37.185Z,80.68
2022-08-21T20:24:37.285Z,80.88
2022-08-21T20:25:37.433Z,80.68
2022-08-21T20:26:37.403Z,80.68
2022-08-21T20:27:40.415Z,80.48
2022-08-21T20:28:37.550Z,80.38
2022-08-21T20:29:39.354Z,80.58
2022-08-21T20:30:38.076Z,80.48
2022-08-21T20:31:37.738Z,80.38
2022-08-21T20:32:37.807Z,80.38
2022-08-21T20:33:37.874Z,80.88
2022-08-21T20:34:37.947Z,80.28
2022-08-21T20:35:38.013Z,81.18
2022-08-21T20:36:38.109Z,81.29
2022-08-21T20:37:38.142Z,80.98
2022-08-21T20:38:38.283Z,81.23
2022-08-21T20:39:38.312Z,81.12
2022-08-21T20:40:38.322Z,81.62
2022-08-21T20:41:38.396Z,81.09
2022-08-21T20:42:38.481Z,80.38
2022-08-21T20:43:38.598Z,81.62
2022-08-21T20:44:46.775Z,81.48
2022-08-21T20:45:38.706Z,81.09
2022-08-21T20:46:38.774Z,81.02
2022-08-21T20:47:38.864Z,81.23
2022-08-21T20:48:49.070Z,81.23
2022-08-21T20:49:39.007Z,81.02
2022-08-21T20:50:39.077Z,81.12
2022-08-21T20:51:39.160Z,81.73
2022-08-21T20:52:39.305Z,81.62
2022-08-21T20:53:42.954Z,81.23
2022-08-21T20:54:39.405Z,81.12
2022-08-21T20:55:39.460Z,81.42
2022-08-21T20:56:39.530Z,81.73
2022-08-21T20:57:39.703Z,81.42
2022-08-21T20:58:39.679Z,81.42
2022-08-21T20:59:39.745Z,82.26
2022-08-21T21:00:39.807Z,82.37
2022-08-21T21:01:39.857Z,82.57
2022-08-21T21:02:39.941Z,82.57
2022-08-21T21:03:42.227Z,82.26
2022-08-21T21:04:40.042Z,82.87
2022-08-21T21:05:40.099Z,82.97
2022-08-21T21:06:40.166Z,82.67
2022-08-21T21:07:40.238Z,82.67
2022-08-21T21:08:40.341Z,82.46
2022-08-21T21:09:41.136Z,82.46
2022-08-21T21:10:40.423Z,82.76
2022-08-21T21:11:40.493Z,82.57
2022-08-21T21:12:40.577Z,82.76
2022-08-21T21:13:40.640Z,83.51
2022-08-21T21:14:40.794Z,83.01
2022-08-21T21:15:40.722Z,82.81
2022-08-21T21:16:40.865Z,83.51
2022-08-21T21:17:40.848Z,83.31
2022-08-21T21:18:41.429Z,83.71
2022-08-21T21:19:41.013Z,83.31
2022-08-21T21:20:41.045Z,83.45
2022-08-21T21:21:41.114Z,83.71
2022-08-21T21:22:41.213Z,83.85
2022-08-21T21:23:41.379Z,84.11
2022-08-21T21:24:41.347Z,84.11
2022-08-21T21:25:41.390Z,84.71
2022-08-21T21:27:41.643Z,84.81
2022-08-21T21:28:41.626Z,84.85
2022-08-21T21:29:41.772Z,84.75
2022-08-21T21:30:41.782Z,84.85
2022-08-21T21:31:41.874Z,84.85
2022-08-21T21:32:41.969Z,84.95
2022-08-21T21:33:42.064Z,84.95
2022-08-21T21:34:42.171Z,84.65
2022-08-21T21:35:49.016Z,85.05
2022-08-21T21:36:43.984Z,85.16
2022-08-21T21:37:42.512Z,84.95
2022-08-21T21:38:51.435Z,84.85
2022-08-21T21:39:42.641Z,84.95
2022-08-21T21:40:42.694Z,84.65
2022-08-21T21:41:43.007Z,84.75
2022-08-21T21:42:42.885Z,84.85
2022-08-21T21:43:42.951Z,84.89
2022-08-21T21:44:43.065Z,85.30
2022-08-21T21:45:43.107Z,84.99
2022-08-21T21:46:48.419Z,85.19
2022-08-21T21:47:43.223Z,85.50
2022-08-21T21:48:43.297Z,84.95
2022-08-21T21:49:43.500Z,84.80
2022-08-21T21:50:43.436Z,84.69
2022-08-21T21:51:43.542Z,85.50
2022-08-21T21:52:43.588Z,85.39
2022-08-21T21:53:43.896Z,85.19
2022-08-21T21:54:43.946Z,85.50
2022-08-21T21:55:43.841Z,84.99
2022-08-21T21:56:43.918Z,84.99
2022-08-21T21:57:43.998Z,85.03
2022-08-21T21:58:44.064Z,84.80
2022-08-21T21:59:44.169Z,85.14
2022-08-21T22:00:52.007Z,85.14
2022-08-21T22:01:44.295Z,85.03
2022-08-21T22:02:44.382Z,85.33
2022-08-21T22:03:44.446Z,85.44
2022-08-21T22:04:51.224Z,85.78
2022-08-21T22:05:44.622Z,85.08
2022-08-21T22:06:44.810Z,85.68
2022-08-21T22:07:44.743Z,85.28
2022-08-21T22:08:48.808Z,85.28
2022-08-21T22:09:44.896Z,85.68
2022-08-21T22:10:44.976Z,85.88
2022-08-21T22:11:45.241Z,85.38
2022-08-21T22:12:50.061Z,85.17
2022-08-21T22:13:45.736Z,85.28
2022-08-21T22:14:46.701Z,85.28
2022-08-21T22:15:45.456Z,85.48
2022-08-21T22:16:45.466Z,85.68
2022-08-21T22:17:45.736Z,85.68
2022-08-21T22:18:45.597Z,85.17
2022-08-21T22:19:45.686Z,86.02
2022-08-21T22:20:45.753Z,85.11
2022-08-21T22:21:45.835Z,84.91
2022-08-21T22:22:46.024Z,85.05
2022-08-21T22:23:45.981Z,84.91
2022-08-21T22:24:46.135Z,84.71
2022-08-21T22:25:46.148Z,84.75
2022-08-21T22:26:46.245Z,84.71
2022-08-21T22:27:46.391Z,84.95
2022-08-21T22:28:46.498Z,85.05
2022-08-21T22:29:46.557Z,85.25
2022-08-21T22:30:46.627Z,85.56
2022-08-21T22:31:46.704Z,85.76
2022-08-21T22:32:46.786Z,85.66
2022-08-21T22:33:46.921Z,85.76
2022-08-21T22:34:46.946Z,85.66
2022-08-21T22:35:47.069Z,85.76
2022-08-21T22:36:47.136Z,85.76
2022-08-21T22:37:47.655Z,85.90
2022-08-21T22:38:47.306Z,85.80
2022-08-21T22:39:47.413Z,86.21
2022-08-21T22:40:47.531Z,86.30
2022-08-21T22:41:47.600Z,86.21
2022-08-21T22:42:47.867Z,85.76
2022-08-21T22:43:47.773Z,85.70
2022-08-21T22:44:47.906Z,85.80
2022-08-21T22:45:47.957Z,86.00
2022-08-21T22:46:48.208Z,86.00
2022-08-21T22:47:48.158Z,85.20
2022-08-21T22:48:48.261Z,85.00
2022-08-21T22:49:48.466Z,85.00
2022-08-21T22:50:48.451Z,84.80
2022-08-21T22:51:48.531Z,85.03
2022-08-21T22:52:48.620Z,85.00
2022-08-21T22:53:48.726Z,85.00
2022-08-21T22:54:53.120Z,85.14
2022-08-21T22:55:48.938Z,85.20
2022-08-21T22:56:49.506Z,85.30
2022-08-21T22:57:49.980Z,85.60
2022-08-21T22:58:49.232Z,85.50
2022-08-21T22:59:49.339Z,85.44
2022-08-21T23:00:49.381Z,85.64
2022-08-21T23:01:49.877Z,85.94
2022-08-21T23:02:49.627Z,85.84
2022-08-21T23:03:49.644Z,85.84
2022-08-21T23:04:49.677Z,85.80
2022-08-21T23:05:49.759Z,86.10
2022-08-21T23:06:52.619Z,86.55
2022-08-21T23:07:50.106Z,86.85
2022-08-21T23:08:49.982Z,87.15
2022-08-21T23:09:53.157Z,87.45
2022-08-21T23:10:50.143Z,88.12
2022-08-21T23:12:50.318Z,87.82
2022-08-21T23:13:50.344Z,88.26
2022-08-21T23:15:50.517Z,88.12
2022-08-21T23:16:50.700Z,87.92
2022-08-21T23:17:50.712Z,87.85
2022-08-21T23:18:50.814Z,87.85
2022-08-21T23:19:50.921Z,88.06
2022-08-21T23:20:55.558Z,87.82
2022-08-21T23:21:51.179Z,87.92
2022-08-21T23:22:51.245Z,88.32
2022-08-21T23:23:51.333Z,88.42
2022-08-21T23:24:51.428Z,88.42
2022-08-21T23:25:51.511Z,88.32
2022-08-21T23:26:52.147Z,88.52
2022-08-21T23:27:51.715Z,88.72
2022-08-21T23:28:51.754Z,88.52
2022-08-21T23:29:51.850Z,88.62
2022-08-21T23:30:51.899Z,88.32
2022-08-21T23:31:51.977Z,88.12
2022-08-21T23:32:52.480Z,88.32
2022-08-21T23:33:52.208Z,88.22
2022-08-21T23:34:52.255Z,88.32
2022-08-21T23:35:52.349Z,88.12
2022-08-21T23:36:52.434Z,88.07
2022-08-21T23:37:52.523Z,87.87
2022-08-21T23:38:53.211Z,87.67
2022-08-21T23:39:52.704Z,88.18
2022-08-21T23:40:52.753Z,88.48
2022-08-21T23:41:52.823Z,88.18
2022-08-21T23:42:52.906Z,88.28